Terminal Aerodrome Forecast
Issued by NWS

Home | Current Version | Previous Version | Graphics & Text | Print | Product List | Glossary On
Versions: 1 2 3 4 5 6 7 8 9 10 11 12 13 14 15 16 17 18
000
FTUS41 KCLE 200500
TAFFDY
TAF
KFDY 200532Z 2006/2106 20005KT P6SM FEW050 OVC150
      TEMPO 2006/2007 3SM -TSRA BR SCT025 OVC035CB
     FM200900 21006KT 5SM BR SCT015 BKN150
      TEMPO 2010/2013 3SM BR BKN015
     FM201400 27012KT P6SM BKN035
     FM202000 26010KT P6SM SCT040=

USA.gov is the U.S. government's official web portal to all federal, state and local government web resources and services.